sensor_id;sensor_type;location;lat;lon;timestamp;temperature;humidity
72646;DHT22;60687;53.876;10.674;2023-07-29T00:04:18;18.00;99.90
72646;DHT22;60687;53.876;10.674;2023-07-29T00:14:21;17.90;99.90
72646;DHT22;60687;53.876;10.674;2023-07-29T00:24:25;17.90;99.90
72646;DHT22;60687;53.876;10.674;2023-07-29T00:34:27;17.90;99.90
72646;DHT22;60687;53.876;10.674;2023-07-29T00:44:31;17.90;99.90
72646;DHT22;60687;53.876;10.674;2023-07-29T00:54:35;17.90;99.90
72646;DHT22;60687;53.876;10.674;2023-07-29T01:04:39;17.80;99.90
72646;DHT22;60687;53.876;10.674;2023-07-29T01:14:49;17.80;99.90
72646;DHT22;60687;53.876;10.674;2023-07-29T01:24:54;17.80;99.90
72646;DHT22;60687;53.876;10.674;2023-07-29T01:35:00;17.80;99.90
72646;DHT22;60687;53.876;10.674;2023-07-29T01:45:07;17.70;99.90
72646;DHT22;60687;53.876;10.674;2023-07-29T01:55:09;17.70;99.90
72646;DHT22;60687;53.876;10.674;2023-07-29T02:05:13;17.60;99.90
72646;DHT22;60687;53.876;10.674;2023-07-29T02:15:15;17.60;99.90
72646;DHT22;60687;53.876;10.674;2023-07-29T02:25:19;17.60;99.90
72646;DHT22;60687;53.876;10.674;2023-07-29T02:35:22;17.50;99.90
72646;DHT22;60687;53.876;10.674;2023-07-29T02:45:25;17.50;99.90
72646;DHT22;60687;53.876;10.674;2023-07-29T02:55:28;17.60;99.90
72646;DHT22;60687;53.876;10.674;2023-07-29T03:05:32;17.60;99.90
72646;DHT22;60687;53.876;10.674;2023-07-29T03:15:35;17.60;99.90
72646;DHT22;60687;53.876;10.674;2023-07-29T03:25:39;17.60;99.90
72646;DHT22;60687;53.876;10.674;2023-07-29T03:35:42;17.70;99.90
72646;DHT22;60687;53.876;10.674;2023-07-29T03:45:48;17.70;99.90
72646;DHT22;60687;53.876;10.674;2023-07-29T03:55:51;17.70;99.90
72646;DHT22;60687;53.876;10.674;2023-07-29T04:05:56;17.80;99.90
72646;DHT22;60687;53.876;10.674;2023-07-29T04:15:59;17.80;99.90
72646;DHT22;60687;53.876;10.674;2023-07-29T04:26:04;17.80;99.90
72646;DHT22;60687;53.876;10.674;2023-07-29T04:36:06;17.90;99.90
72646;DHT22;60687;53.876;10.674;2023-07-29T04:46:10;18.00;99.90
72646;DHT22;60687;53.876;10.674;2023-07-29T04:56:13;18.00;99.90
72646;DHT22;60687;53.876;10.674;2023-07-29T05:06:17;18.10;99.90
72646;DHT22;60687;53.876;10.674;2023-07-29T05:16:19;18.20;99.90
72646;DHT22;60687;53.876;10.674;2023-07-29T05:26:23;18.30;99.90
72646;DHT22;60687;53.876;10.674;2023-07-29T05:36:25;18.40;99.90
72646;DHT22;60687;53.876;10.674;2023-07-29T05:46:29;18.50;99.90
72646;DHT22;60687;53.876;10.674;2023-07-29T05:56:31;18.50;99.90
72646;DHT22;60687;53.876;10.674;2023-07-29T06:06:35;18.60;99.90
72646;DHT22;60687;53.876;10.674;2023-07-29T06:16:38;18.60;99.90
72646;DHT22;60687;53.876;10.674;2023-07-29T06:26:42;18.70;99.90
72646;DHT22;60687;53.876;10.674;2023-07-29T06:36:44;18.80;99.90
72646;DHT22;60687;53.876;10.674;2023-07-29T06:46:48;18.90;99.90
72646;DHT22;60687;53.876;10.674;2023-07-29T06:56:50;19.10;99.90
72646;DHT22;60687;53.876;10.674;2023-07-29T07:06:55;19.30;99.90
72646;DHT22;60687;53.876;10.674;2023-07-29T07:16:58;19.60;99.90
72646;DHT22;60687;53.876;10.674;2023-07-29T07:27:02;19.70;99.90
72646;DHT22;60687;53.876;10.674;2023-07-29T07:37:05;19.90;99.90
72646;DHT22;60687;53.876;10.674;2023-07-29T07:47:09;20.00;99.90
72646;DHT22;60687;53.876;10.674;2023-07-29T07:57:14;20.20;99.90
72646;DHT22;60687;53.876;10.674;2023-07-29T08:07:18;20.40;99.90
72646;DHT22;60687;53.876;10.674;2023-07-29T08:17:20;20.50;99.90
72646;DHT22;60687;53.876;10.674;2023-07-29T08:27:24;20.50;99.90
72646;DHT22;60687;53.876;10.674;2023-07-29T08:37:26;20.40;99.90
72646;DHT22;60687;53.876;10.674;2023-07-29T08:47:30;20.50;99.90
72646;DHT22;60687;53.876;10.674;2023-07-29T08:57:32;20.60;99.90
72646;DHT22;60687;53.876;10.674;2023-07-29T09:07:36;20.60;99.90
72646;DHT22;60687;53.876;10.674;2023-07-29T09:17:40;20.40;99.90
72646;DHT22;60687;53.876;10.674;2023-07-29T09:27:44;20.30;99.90
72646;DHT22;60687;53.876;10.674;2023-07-29T09:37:47;20.20;99.90
72646;DHT22;60687;53.876;10.674;2023-07-29T09:47:52;20.20;99.90
72646;DHT22;60687;53.876;10.674;2023-07-29T09:57:57;20.10;99.90
72646;DHT22;60687;53.876;10.674;2023-07-29T10:08:04;20.20;99.90
72646;DHT22;60687;53.876;10.674;2023-07-29T10:18:09;20.50;99.90
72646;DHT22;60687;53.876;10.674;2023-07-29T10:28:15;20.80;99.90
72646;DHT22;60687;53.876;10.674;2023-07-29T10:38:19;20.90;99.90
72646;DHT22;60687;53.876;10.674;2023-07-29T10:48:43;21.10;99.90
72646;DHT22;60687;53.876;10.674;2023-07-29T10:58:46;21.40;99.90
72646;DHT22;60687;53.876;10.674;2023-07-29T11:08:50;21.50;99.90
72646;DHT22;60687;53.876;10.674;2023-07-29T11:18:53;21.70;99.90
72646;DHT22;60687;53.876;10.674;2023-07-29T11:28:56;21.90;99.90
72646;DHT22;60687;53.876;10.674;2023-07-29T11:39:08;22.10;95.60
72646;DHT22;60687;53.876;10.674;2023-07-29T11:49:12;22.20;95.00
72646;DHT22;60687;53.876;10.674;2023-07-29T11:59:59;22.30;93.60
72646;DHT22;60687;53.876;10.674;2023-07-29T12:10:12;22.40;93.50
72646;DHT22;60687;53.876;10.674;2023-07-29T12:20:32;22.40;93.40
72646;DHT22;60687;53.876;10.674;2023-07-29T12:30:41;22.50;90.50
72646;DHT22;60687;53.876;10.674;2023-07-29T12:40:43;22.60;91.40
72646;DHT22;60687;53.876;10.674;2023-07-29T12:51:06;22.90;91.00
72646;DHT22;60687;53.876;10.674;2023-07-29T13:01:08;23.00;84.10
72646;DHT22;60687;53.876;10.674;2023-07-29T13:11:26;23.30;86.80
72646;DHT22;60687;53.876;10.674;2023-07-29T13:21:28;23.10;85.10
72646;DHT22;60687;53.876;10.674;2023-07-29T13:31:32;23.00;85.90
72646;DHT22;60687;53.876;10.674;2023-07-29T13:41:34;23.00;85.60
72646;DHT22;60687;53.876;10.674;2023-07-29T13:51:40;23.10;82.30
72646;DHT22;60687;53.876;10.674;2023-07-29T14:01:43;23.20;83.30
72646;DHT22;60687;53.876;10.674;2023-07-29T14:11:47;23.20;78.40
72646;DHT22;60687;53.876;10.674;2023-07-29T14:21:50;23.30;75.70
72646;DHT22;60687;53.876;10.674;2023-07-29T14:31:56;23.40;74.10
72646;DHT22;60687;53.876;10.674;2023-07-29T14:42:02;23.30;69.20
72646;DHT22;60687;53.876;10.674;2023-07-29T14:52:07;23.40;71.00
72646;DHT22;60687;53.876;10.674;2023-07-29T15:02:09;23.30;72.60
72646;DHT22;60687;53.876;10.674;2023-07-29T15:12:13;23.30;74.50
72646;DHT22;60687;53.876;10.674;2023-07-29T15:22:16;23.20;73.30
72646;DHT22;60687;53.876;10.674;2023-07-29T15:32:19;23.10;76.40
72646;DHT22;60687;53.876;10.674;2023-07-29T15:42:22;23.00;75.80
72646;DHT22;60687;53.876;10.674;2023-07-29T15:52:26;23.00;75.60
72646;DHT22;60687;53.876;10.674;2023-07-29T16:02:30;22.90;75.80
72646;DHT22;60687;53.876;10.674;2023-07-29T16:12:36;22.90;76.60
72646;DHT22;60687;53.876;10.674;2023-07-29T16:22:39;22.80;76.00
72646;DHT22;60687;53.876;10.674;2023-07-29T16:32:43;22.80;77.30
72646;DHT22;60687;53.876;10.674;2023-07-29T16:42:46;22.80;72.80
72646;DHT22;60687;53.876;10.674;2023-07-29T16:52:50;22.70;73.90
72646;DHT22;60687;53.876;10.674;2023-07-29T17:02:54;22.50;76.50
72646;DHT22;60687;53.876;10.674;2023-07-29T17:12:58;22.40;77.90
72646;DHT22;60687;53.876;10.674;2023-07-29T17:23:02;22.10;81.90
72646;DHT22;60687;53.876;10.674;2023-07-29T17:33:05;22.00;82.70
72646;DHT22;60687;53.876;10.674;2023-07-29T17:43:10;21.90;86.30
72646;DHT22;60687;53.876;10.674;2023-07-29T17:53:17;21.70;89.60
72646;DHT22;60687;53.876;10.674;2023-07-29T18:03:20;21.60;90.10
72646;DHT22;60687;53.876;10.674;2023-07-29T18:13:23;21.60;90.60
72646;DHT22;60687;53.876;10.674;2023-07-29T18:23:27;21.50;90.20
72646;DHT22;60687;53.876;10.674;2023-07-29T18:33:30;21.40;90.30
72646;DHT22;60687;53.876;10.674;2023-07-29T18:43:33;21.30;90.30
72646;DHT22;60687;53.876;10.674;2023-07-29T18:53:37;21.10;90.80
72646;DHT22;60687;53.876;10.674;2023-07-29T19:03:39;21.00;91.00
72646;DHT22;60687;53.876;10.674;2023-07-29T19:13:45;20.90;91.70
72646;DHT22;60687;53.876;10.674;2023-07-29T19:23:48;20.80;92.50
72646;DHT22;60687;53.876;10.674;2023-07-29T19:33:52;20.60;93.10
72646;DHT22;60687;53.876;10.674;2023-07-29T19:43:55;20.50;94.00
72646;DHT22;60687;53.876;10.674;2023-07-29T19:54:01;20.40;94.10
72646;DHT22;60687;53.876;10.674;2023-07-29T20:04:04;20.30;95.00
72646;DHT22;60687;53.876;10.674;2023-07-29T20:14:07;20.20;95.80
72646;DHT22;60687;53.876;10.674;2023-07-29T20:24:10;20.10;96.00
72646;DHT22;60687;53.876;10.674;2023-07-29T20:34:14;20.00;96.30
72646;DHT22;60687;53.876;10.674;2023-07-29T20:44:17;19.90;95.90
72646;DHT22;60687;53.876;10.674;2023-07-29T20:54:20;19.70;96.20
72646;DHT22;60687;53.876;10.674;2023-07-29T21:04:24;19.60;96.20
72646;DHT22;60687;53.876;10.674;2023-07-29T21:14:28;19.50;96.20
72646;DHT22;60687;53.876;10.674;2023-07-29T21:24:30;19.30;96.30
72646;DHT22;60687;53.876;10.674;2023-07-29T21:34:34;19.20;96.90
72646;DHT22;60687;53.876;10.674;2023-07-29T21:44:37;19.00;97.80
72646;DHT22;60687;53.876;10.674;2023-07-29T21:54:41;18.90;98.30
72646;DHT22;60687;53.876;10.674;2023-07-29T22:04:43;18.80;98.90
72646;DHT22;60687;53.876;10.674;2023-07-29T22:15:04;18.60;99.40
72646;DHT22;60687;53.876;10.674;2023-07-29T22:25:07;18.50;99.90
72646;DHT22;60687;53.876;10.674;2023-07-29T22:35:11;18.50;99.60
72646;DHT22;60687;53.876;10.674;2023-07-29T22:45:14;18.40;99.30
72646;DHT22;60687;53.876;10.674;2023-07-29T22:55:18;18.30;99.90
72646;DHT22;60687;53.876;10.674;2023-07-29T23:05:20;18.20;99.90
72646;DHT22;60687;53.876;10.674;2023-07-29T23:15:24;18.10;99.90
72646;DHT22;60687;53.876;10.674;2023-07-29T23:25:28;18.10;99.90
72646;DHT22;60687;53.876;10.674;2023-07-29T23:35:33;18.00;99.90
72646;DHT22;60687;53.876;10.674;2023-07-29T23:45:35;17.90;99.90
72646;DHT22;60687;53.876;10.674;2023-07-29T23:55:39;17.80;99.90
